createdAt,value
2019-04-03T00:00:10.774Z,20.57
2019-04-03T00:02:39.901Z,22.32
2019-04-03T00:05:09.185Z,22.15
2019-04-03T00:07:38.265Z,23.25
2019-04-03T00:10:08.849Z,21.85
2019-04-03T00:12:40.380Z,21.55
2019-04-03T00:15:09.387Z,22.37
2019-04-03T00:17:38.541Z,22.45
2019-04-03T00:20:08.237Z,21.97
2019-04-03T00:22:38.086Z,21.93
2019-04-03T00:25:08.125Z,22.67
2019-04-03T00:27:37.256Z,21.60
2019-04-03T00:30:08.022Z,22.52
2019-04-03T00:32:37.201Z,21.95
2019-04-03T00:35:07.502Z,21.68
2019-04-03T00:37:36.567Z,22.73
2019-04-03T00:40:06.978Z,22.75
2019-04-03T00:42:36.225Z,23.10
2019-04-03T00:45:06.816Z,22.75
2019-04-03T00:47:35.877Z,22.17
2019-04-03T00:50:07.478Z,22.75
2019-04-03T00:52:36.563Z,23.90
2019-04-03T00:55:05.842Z,24.40
2019-04-03T00:57:35.034Z,24.00
2019-04-03T01:00:07.278Z,24.52
2019-04-03T01:02:36.406Z,23.47
2019-04-03T01:05:06.048Z,23.67
2019-04-03T01:07:35.193Z,25.10
2019-04-03T01:10:05.267Z,24.52
2019-04-03T01:12:34.367Z,25.75
2019-04-03T01:15:04.873Z,25.43
2019-04-03T01:17:34.913Z,24.23
2019-04-03T01:20:06.407Z,25.25
2019-04-03T01:22:37.383Z,25.27
2019-04-03T01:25:08.759Z,24.35
2019-04-03T01:27:37.989Z,24.20
2019-04-03T01:30:07.280Z,25.88
2019-04-03T01:32:36.352Z,26.12
2019-04-03T01:35:05.867Z,24.07
2019-04-03T01:37:34.949Z,24.52
2019-04-03T01:40:06.058Z,25.23
2019-04-03T01:42:35.120Z,25.48
2019-04-03T01:45:04.543Z,25.72
2019-04-03T01:47:33.597Z,25.20
2019-04-03T01:50:02.715Z,25.72
2019-04-03T01:52:32.343Z,26.00
2019-04-03T01:55:03.392Z,25.88
2019-04-03T01:57:32.329Z,27.13
2019-04-03T02:00:01.396Z,26.93
2019-04-03T02:02:30.502Z,26.42
2019-04-03T02:04:59.553Z,26.50
2019-04-03T02:07:28.615Z,27.10
2019-04-03T02:09:57.687Z,28.52
2019-04-03T02:12:26.730Z,27.90
2019-04-03T02:14:55.808Z,29.70
2019-04-03T02:17:24.850Z,27.07
2019-04-03T02:19:56.026Z,29.05
2019-04-03T02:22:24.680Z,28.83
2019-04-03T02:24:53.743Z,29.65
2019-04-03T02:27:22.805Z,29.18
2019-04-03T02:29:51.885Z,30.05
2019-04-03T02:32:23.464Z,29.00
2019-04-03T02:34:52.053Z,30.32
2019-04-03T02:37:21.161Z,30.30
2019-04-03T02:39:50.218Z,31.55
2019-04-03T02:42:19.426Z,30.32
2019-04-03T02:44:51.223Z,32.83
2019-04-03T02:47:19.606Z,32.33
2019-04-03T02:49:48.706Z,33.65
2019-04-03T02:52:17.854Z,34.10
2019-04-03T02:54:47.337Z,33.33
2019-04-03T02:57:17.855Z,34.15
2019-04-03T02:59:47.455Z,34.53
2019-04-03T03:02:16.851Z,36.05
2019-04-03T03:04:46.070Z,36.05
2019-04-03T03:07:15.381Z,33.70
2019-04-03T03:09:47.490Z,33.98
2019-04-03T03:12:17.121Z,33.38
2019-04-03T03:14:46.333Z,33.98
2019-04-03T03:17:21.586Z,34.00
2019-04-03T03:19:50.343Z,35.98
2019-04-03T03:22:19.949Z,35.13
2019-04-03T03:24:49.895Z,37.20
2019-04-03T03:27:19.042Z,36.55
2019-04-03T03:29:48.173Z,35.65
2019-04-03T03:32:21.975Z,35.43
2019-04-03T03:34:56.884Z,35.43
2019-04-03T03:37:20.227Z,37.80
2019-04-03T03:39:51.131Z,37.95
2019-04-03T03:42:20.535Z,35.60
2019-04-03T03:44:49.959Z,38.08
2019-04-03T03:47:19.320Z,37.55
2019-04-03T03:49:50.202Z,36.60
2019-04-03T03:52:19.980Z,36.38
2019-04-03T03:54:51.083Z,35.38
2019-04-03T03:57:20.515Z,34.45
2019-04-03T03:59:52.496Z,34.35
2019-04-03T04:02:22.142Z,34.50
2019-04-03T04:04:51.347Z,33.05
2019-04-03T04:07:20.463Z,36.85
2019-04-03T04:09:51.931Z,34.45
2019-04-03T04:12:21.537Z,34.25
2019-04-03T04:14:54.835Z,33.58
2019-04-03T04:17:21.600Z,34.90
2019-04-03T04:19:50.916Z,35.55
2019-04-03T04:22:20.058Z,34.27
2019-04-03T04:24:49.422Z,34.50
2019-04-03T04:27:18.601Z,33.63
2019-04-03T04:29:48.209Z,34.53
2019-04-03T04:32:17.266Z,31.57
2019-04-03T04:34:49.703Z,33.13
2019-04-03T04:37:17.120Z,36.83
2019-04-03T04:39:46.175Z,36.70
2019-04-03T04:42:15.233Z,34.48
2019-04-03T04:44:44.501Z,34.48
2019-04-03T04:47:15.297Z,34.92
2019-04-03T04:49:44.497Z,35.08
2019-04-03T04:52:13.659Z,34.98
2019-04-03T04:54:43.078Z,36.63
2019-04-03T04:57:12.160Z,34.20
2019-04-03T04:59:41.283Z,34.67
2019-04-03T05:02:10.432Z,35.28
2019-04-03T05:04:39.516Z,34.38
2019-04-03T05:07:08.586Z,36.45
2019-04-03T05:09:37.786Z,33.60
2019-04-03T05:12:09.354Z,32.48
2019-04-03T05:14:37.694Z,35.70
2019-04-03T05:17:06.846Z,36.03
2019-04-03T05:19:35.906Z,36.68
2019-04-03T05:22:04.975Z,39.58
2019-04-03T05:24:34.105Z,37.88
2019-04-03T05:27:03.696Z,37.48
2019-04-03T05:29:34.767Z,34.88
2019-04-03T05:32:03.734Z,35.52
2019-04-03T05:34:32.789Z,33.10
2019-04-03T05:37:01.943Z,33.05
2019-04-03T05:39:31.002Z,32.38
2019-04-03T05:42:00.410Z,31.50
2019-04-03T05:44:31.041Z,35.30
2019-04-03T05:47:00.624Z,34.48
2019-04-03T05:49:32.876Z,33.35
2019-04-03T05:52:03.917Z,34.98
2019-04-03T05:54:32.756Z,33.88
2019-04-03T05:57:01.955Z,34.35
2019-04-03T05:59:33.474Z,34.45
2019-04-03T06:02:14.275Z,37.00
2019-04-03T06:04:32.624Z,33.78
2019-04-03T06:07:01.702Z,34.65
2019-04-03T06:09:31.141Z,35.20
2019-04-03T06:12:00.607Z,36.55
2019-04-03T06:14:29.657Z,38.42
2019-04-03T06:16:58.728Z,36.08
2019-04-03T06:19:27.778Z,34.23
2019-04-03T06:21:56.841Z,36.98
2019-04-03T06:24:25.880Z,36.23
2019-04-03T06:26:54.967Z,37.28
2019-04-03T06:29:24.074Z,38.08
2019-04-03T06:31:53.172Z,39.25
2019-04-03T06:34:22.265Z,36.45
2019-04-03T06:36:51.598Z,38.58
2019-04-03T06:39:22.929Z,39.10
2019-04-03T06:41:51.524Z,38.28
2019-04-03T06:44:22.538Z,39.75
2019-04-03T06:46:53.925Z,38.88
2019-04-03T06:49:22.322Z,38.48
2019-04-03T06:51:51.382Z,37.67
2019-04-03T06:54:20.467Z,38.23
2019-04-03T06:56:52.069Z,38.58
2019-04-03T06:59:20.389Z,35.52
2019-04-03T07:01:50.533Z,37.53
2019-04-03T07:38:43.709Z,38.23
2019-04-03T07:41:13.038Z,38.85
2019-04-03T07:43:42.148Z,40.65
2019-04-03T07:46:16.477Z,38.75
2019-04-03T07:48:46.865Z,38.25
2019-04-03T07:51:16.134Z,38.65
2019-04-03T07:53:45.387Z,38.28
2019-04-03T07:56:14.506Z,34.95
2019-04-03T07:58:43.649Z,37.25
2019-04-03T08:01:12.738Z,35.75
2019-04-03T08:03:41.861Z,35.28
2019-04-03T08:06:11.142Z,36.63
2019-04-03T08:08:40.363Z,34.60
2019-04-03T08:11:09.512Z,33.00
2019-04-03T08:13:38.601Z,35.68
2019-04-03T08:16:07.675Z,35.15
2019-04-03T08:18:36.767Z,34.90
2019-04-03T08:21:06.005Z,33.95
2019-04-03T08:23:36.760Z,34.48
2019-04-03T08:26:06.034Z,35.73
2019-04-03T08:28:35.397Z,36.28
2019-04-03T08:31:04.605Z,35.83
2019-04-03T08:33:33.750Z,34.90
2019-04-03T08:36:02.837Z,34.43
2019-04-03T08:38:32.007Z,35.98
2019-04-03T08:41:03.344Z,33.63
2019-04-03T08:43:32.691Z,35.58
2019-04-03T08:46:02.800Z,36.53
2019-04-03T08:48:31.978Z,35.70
2019-04-03T08:51:02.895Z,33.95
2019-04-03T08:53:31.918Z,35.08
2019-04-03T08:56:01.358Z,37.03
2019-04-03T08:58:30.603Z,36.45
2019-04-03T09:00:59.723Z,32.08
2019-04-03T09:03:28.842Z,35.78
2019-04-03T09:05:57.897Z,36.20
2019-04-03T09:08:27.266Z,35.63
2019-04-03T09:10:56.562Z,35.20
2019-04-03T09:13:32.669Z,34.90
2019-04-03T09:16:01.733Z,35.05
2019-04-03T09:18:30.977Z,36.20
2019-04-03T09:21:00.219Z,33.18
2019-04-03T09:23:29.348Z,34.10
2019-04-03T09:25:58.451Z,33.33
2019-04-03T09:28:27.589Z,34.38
2019-04-03T09:30:56.682Z,34.13
2019-04-03T09:33:26.985Z,35.17
2019-04-03T09:35:58.936Z,34.60
2019-04-03T09:38:27.605Z,35.50
2019-04-03T09:40:56.716Z,33.25
2019-04-03T09:43:25.783Z,34.08
2019-04-03T09:45:54.860Z,33.67
2019-04-03T09:48:24.075Z,32.20
2019-04-03T09:50:53.272Z,33.73
2019-04-03T09:53:25.518Z,33.40
2019-04-03T09:55:53.123Z,34.27
2019-04-03T09:58:22.184Z,34.63
2019-04-03T10:00:51.255Z,33.63
2019-04-03T10:03:22.498Z,32.78
2019-04-03T10:05:51.111Z,34.83
2019-04-03T10:08:20.195Z,33.88
2019-04-03T10:10:49.282Z,33.58
2019-04-03T10:13:18.426Z,31.62
2019-04-03T10:15:47.480Z,35.17
2019-04-03T10:18:16.565Z,33.40
2019-04-03T10:20:48.555Z,32.58
2019-04-03T10:23:16.740Z,32.67
2019-04-03T10:25:45.824Z,32.58
2019-04-03T10:28:15.329Z,33.18
2019-04-03T10:30:44.680Z,33.13
2019-04-03T10:33:13.760Z,33.65
2019-04-03T10:35:42.907Z,33.23
2019-04-03T10:38:12.057Z,34.33
2019-04-03T10:40:41.104Z,34.60
2019-04-03T10:43:10.514Z,33.23
2019-04-03T10:45:39.608Z,34.27
2019-04-03T10:48:08.993Z,35.15
2019-04-03T10:50:38.712Z,35.35
2019-04-03T10:53:08.088Z,35.78
2019-04-03T10:55:37.174Z,33.78
2019-04-03T10:58:07.163Z,34.53
2019-04-03T11:00:37.166Z,33.00
2019-04-03T11:03:06.329Z,35.88
2019-04-03T11:05:35.459Z,35.30
2019-04-03T11:08:04.753Z,35.45
2019-04-03T11:10:34.201Z,35.83
2019-04-03T11:13:03.868Z,33.28
2019-04-03T11:15:33.075Z,35.20
2019-04-03T11:18:02.151Z,35.48
2019-04-03T11:20:31.278Z,31.62
2019-04-03T11:23:06.814Z,36.05
2019-04-03T11:25:31.162Z,35.73
2019-04-03T11:28:00.724Z,35.13
2019-04-03T11:30:29.908Z,35.17
2019-04-03T11:32:58.971Z,31.35
2019-04-03T11:35:28.082Z,31.90
2019-04-03T11:37:57.473Z,24.30
2019-04-03T11:40:26.889Z,33.78
2019-04-03T11:42:56.064Z,34.65
2019-04-03T11:45:25.132Z,34.00
2019-04-03T11:47:54.513Z,33.83
2019-04-03T11:50:25.172Z,31.52
2019-04-03T11:52:54.485Z,20.20
2019-04-03T11:55:23.800Z,23.90
2019-04-03T11:57:52.852Z,24.60
2019-04-03T12:00:23.781Z,23.60
2019-04-03T12:02:52.831Z,24.32
2019-04-03T12:05:21.963Z,22.93
2019-04-03T12:07:51.278Z,24.18
2019-04-03T12:10:20.342Z,29.45
2019-04-03T12:12:49.413Z,29.42
2019-04-03T12:15:21.427Z,23.87
2019-04-03T12:17:49.264Z,21.55
2019-04-03T12:20:18.437Z,24.87
2019-04-03T12:22:47.499Z,21.65
2019-04-03T12:25:16.552Z,17.55
2019-04-03T12:27:46.546Z,21.75
2019-04-03T12:30:16.573Z,20.43
2019-04-03T12:32:49.374Z,17.85
2019-04-03T12:35:16.716Z,19.95
2019-04-03T12:37:46.164Z,20.02
2019-04-03T12:40:16.059Z,13.62
2019-04-03T12:42:45.454Z,18.25
2019-04-03T12:45:17.469Z,16.70
2019-04-03T12:47:45.801Z,14.45
2019-04-03T12:50:15.396Z,18.60
2019-04-03T12:52:45.467Z,16.60
2019-04-03T12:55:15.181Z,17.07
2019-04-03T12:57:44.326Z,20.43
2019-04-03T13:00:14.686Z,16.27
2019-04-03T13:02:43.895Z,15.85
2019-04-03T13:05:14.256Z,20.65
2019-04-03T13:07:45.921Z,14.78
2019-04-03T13:10:15.915Z,22.42
2019-04-03T13:12:45.052Z,21.02
2019-04-03T13:15:15.171Z,22.52
2019-04-03T13:17:44.949Z,23.65
2019-04-03T13:20:15.000Z,18.95
2019-04-03T13:22:44.056Z,21.00
2019-04-03T13:25:13.186Z,19.00
2019-04-03T13:27:42.244Z,19.82
2019-04-03T13:30:13.933Z,23.45
2019-04-03T13:32:43.088Z,17.73
2019-04-03T13:35:15.582Z,14.73
2019-04-03T13:37:45.147Z,18.73
2019-04-03T13:40:15.552Z,22.93
2019-04-03T13:42:47.627Z,18.50
2019-04-03T13:45:15.635Z,15.05
2019-04-03T13:47:47.006Z,21.50
2019-04-03T13:50:15.820Z,20.65
2019-04-03T13:52:48.438Z,20.35
2019-04-03T13:55:15.719Z,17.40
2019-04-03T13:57:44.890Z,19.57
2019-04-03T14:00:21.893Z,16.25
2019-04-03T14:02:46.531Z,20.60
2019-04-03T14:05:16.590Z,12.90
2019-04-03T14:07:46.097Z,18.80
2019-04-03T14:10:15.498Z,18.30
2019-04-03T14:12:45.710Z,11.33
2019-04-03T14:15:14.997Z,11.12
2019-04-03T14:17:54.052Z,14.13
2019-04-03T14:20:15.803Z,15.48
2019-04-03T14:22:45.158Z,13.03
2019-04-03T14:25:20.975Z,14.45
2019-04-03T14:27:45.346Z,11.30
2019-04-03T14:30:14.924Z,11.00
2019-04-03T14:32:45.447Z,13.05
2019-04-03T14:35:43.714Z,10.10
2019-04-03T14:37:45.585Z,11.35
2019-04-03T14:40:15.009Z,13.43
2019-04-03T14:42:44.255Z,11.28
2019-04-03T14:45:15.152Z,11.65
2019-04-03T14:47:44.331Z,12.58
2019-04-03T14:50:13.901Z,10.65
2019-04-03T14:52:43.017Z,11.83
2019-04-03T14:55:18.944Z,13.03
2019-04-03T14:57:43.530Z,10.38
2019-04-03T15:00:25.646Z,11.73
2019-04-03T15:02:46.566Z,11.97
2019-04-03T15:05:15.656Z,10.18
2019-04-03T15:07:44.735Z,11.75
2019-04-03T15:10:15.384Z,10.23
2019-04-03T15:12:44.558Z,9.05
2019-04-03T15:15:13.787Z,10.55
2019-04-03T15:17:42.907Z,11.18
2019-04-03T15:20:12.792Z,8.40
2019-04-03T15:22:42.579Z,9.80
2019-04-03T15:25:12.869Z,9.38
2019-04-03T15:27:42.617Z,8.75
2019-04-03T15:30:12.706Z,9.80
2019-04-03T15:32:41.798Z,11.45
2019-04-03T15:35:11.366Z,10.28
2019-04-03T15:37:42.293Z,9.05
2019-04-03T15:40:11.693Z,9.70
2019-04-03T15:42:41.481Z,9.05
2019-04-03T15:45:11.518Z,8.70
2019-04-03T15:47:44.919Z,8.80
2019-04-03T15:50:11.967Z,7.92
2019-04-03T15:52:43.598Z,6.85
2019-04-03T15:55:12.942Z,6.60
2019-04-03T15:57:42.366Z,7.70
2019-04-03T16:00:12.955Z,8.15
2019-04-03T16:02:44.534Z,5.80
2019-04-03T16:05:13.526Z,8.10
2019-04-03T16:07:42.803Z,7.08
2019-04-03T16:10:12.848Z,8.45
2019-04-03T16:12:43.461Z,5.80
2019-04-03T16:15:13.085Z,9.08
2019-04-03T16:17:42.297Z,7.78
2019-04-03T16:20:11.499Z,8.38
2019-04-03T16:22:40.569Z,8.20
2019-04-03T16:25:09.864Z,9.15
2019-04-03T16:27:38.923Z,9.45
2019-04-03T16:30:09.565Z,10.23
2019-04-03T16:32:39.045Z,9.68
2019-04-03T16:35:08.534Z,11.97
2019-04-03T16:37:37.670Z,11.65
2019-04-03T16:40:08.155Z,10.80
2019-04-03T16:42:37.201Z,14.15
2019-04-03T16:45:10.667Z,13.05
2019-04-03T16:47:40.186Z,15.25
2019-04-03T16:50:10.176Z,16.55
2019-04-03T16:52:39.227Z,16.95
2019-04-03T16:55:09.145Z,16.05
2019-04-03T16:57:38.338Z,17.60
2019-04-03T17:00:09.534Z,18.42
2019-04-03T17:02:39.315Z,18.37
2019-04-03T17:05:11.192Z,18.42
2019-04-03T17:07:40.245Z,18.95
2019-04-03T17:10:10.590Z,16.60
2019-04-03T17:12:39.809Z,19.02
2019-04-03T17:15:09.942Z,17.17
2019-04-03T17:17:39.265Z,18.37
2019-04-03T17:20:09.371Z,18.20
2019-04-03T17:22:40.817Z,17.07
2019-04-03T17:25:09.716Z,18.87
2019-04-03T17:27:39.301Z,18.75
2019-04-03T17:30:09.054Z,17.85
2019-04-03T17:32:38.787Z,19.20
2019-04-03T17:35:08.719Z,18.48
2019-04-03T17:37:38.428Z,20.52
2019-04-03T17:40:11.170Z,21.48
2019-04-03T17:42:40.396Z,20.97
2019-04-03T17:45:09.911Z,21.97
2019-04-03T17:47:39.041Z,25.37
2019-04-03T17:50:09.452Z,23.42
2019-04-03T17:52:38.497Z,29.80
2019-04-03T17:55:10.650Z,29.95
2019-04-03T17:57:40.094Z,25.00
2019-04-03T18:00:11.654Z,25.92
2019-04-03T18:02:40.692Z,27.02
2019-04-03T18:05:10.807Z,31.30
2019-04-03T18:07:39.862Z,32.58
2019-04-03T18:10:12.452Z,32.50
2019-04-03T18:12:40.183Z,30.95
2019-04-03T18:15:10.584Z,34.27
2019-04-03T18:17:39.643Z,33.75
2019-04-03T18:20:12.408Z,34.58
2019-04-03T18:22:42.765Z,34.03
2019-04-03T18:25:12.466Z,33.92
2019-04-03T18:27:41.520Z,34.10
2019-04-03T18:30:12.429Z,33.10
2019-04-03T18:32:41.779Z,30.97
2019-04-03T18:35:11.538Z,32.83
2019-04-03T18:37:41.414Z,32.28
2019-04-03T18:40:14.002Z,31.85
2019-04-03T18:42:42.175Z,31.02
2019-04-03T18:45:24.069Z,31.75
2019-04-03T18:47:45.879Z,30.70
2019-04-03T18:50:13.949Z,31.42
2019-04-03T18:52:43.057Z,30.90
2019-04-03T18:55:14.536Z,31.05
2019-04-03T18:57:42.968Z,30.10
2019-04-03T19:00:12.353Z,31.07
2019-04-03T19:02:41.415Z,31.68
2019-04-03T19:05:14.199Z,24.43
2019-04-03T19:07:45.995Z,28.95
2019-04-03T19:10:14.073Z,26.87
2019-04-03T19:12:43.763Z,31.23
2019-04-03T19:15:14.404Z,31.10
2019-04-03T19:17:43.471Z,32.23
2019-04-03T19:20:12.642Z,28.15
2019-04-03T19:22:41.703Z,31.12
2019-04-03T19:25:10.994Z,28.67
2019-04-03T19:27:40.065Z,30.02
2019-04-03T19:30:10.677Z,33.13
2019-04-03T19:32:42.795Z,34.15
2019-04-03T19:35:10.661Z,35.08
2019-04-03T19:37:39.917Z,35.73
2019-04-03T19:40:10.326Z,35.95
2019-04-03T19:42:39.558Z,34.03
2019-04-03T19:45:08.869Z,35.55
2019-04-03T19:47:37.986Z,34.70
2019-04-03T19:50:10.410Z,32.67
2019-04-03T19:52:41.475Z,35.40
2019-04-03T19:55:10.297Z,34.20
2019-04-03T19:57:39.366Z,32.98
2019-04-03T20:00:09.534Z,32.83
2019-04-03T20:02:42.648Z,33.67
2019-04-03T20:05:09.773Z,34.38
2019-04-03T20:07:38.837Z,35.23
2019-04-03T20:10:09.677Z,36.03
2019-04-03T20:12:38.740Z,34.63
2019-04-03T20:15:09.827Z,33.95
2019-04-03T20:17:38.878Z,35.90
2019-04-03T20:20:08.393Z,35.50
2019-04-03T20:22:40.632Z,35.23
2019-04-03T20:25:09.627Z,34.18
2019-04-03T20:27:38.787Z,34.38
2019-04-03T20:30:08.600Z,35.38
2019-04-03T20:32:39.838Z,35.33
2019-04-03T20:35:08.959Z,35.20
2019-04-03T20:37:38.003Z,35.75
2019-04-03T20:40:07.391Z,33.42
2019-04-03T20:42:36.601Z,35.78
2019-04-03T20:45:07.261Z,36.08
2019-04-03T20:47:36.311Z,36.03
2019-04-03T20:50:06.992Z,35.52
2019-04-03T20:52:36.737Z,35.05
2019-04-03T20:55:06.860Z,33.88
2019-04-03T20:57:35.928Z,34.53
2019-04-03T21:00:10.826Z,35.95
2019-04-03T21:02:41.952Z,33.23
2019-04-03T21:05:10.851Z,36.42
2019-04-03T21:07:39.882Z,36.70
2019-04-03T21:10:11.919Z,34.33
2019-04-03T21:12:40.960Z,34.65
2019-04-03T21:15:13.430Z,34.90
2019-04-03T21:17:40.991Z,35.90
2019-04-03T21:20:10.173Z,33.98
2019-04-03T21:22:39.230Z,33.00
2019-04-03T21:25:08.445Z,35.05
2019-04-03T21:27:39.765Z,35.20
2019-04-03T21:30:11.684Z,35.58
2019-04-03T21:32:40.740Z,34.60
2019-04-03T21:35:10.040Z,34.55
2019-04-03T21:37:40.522Z,35.70
2019-04-03T21:40:10.474Z,35.15
2019-04-03T21:42:39.523Z,35.43
2019-04-03T21:45:08.917Z,37.17
2019-04-03T21:47:37.970Z,34.48
2019-04-03T21:50:07.585Z,36.33
2019-04-03T21:52:36.651Z,34.53
2019-04-03T21:55:08.676Z,34.80
2019-04-03T21:57:38.584Z,37.08
2019-04-03T22:00:12.974Z,35.73
2019-04-03T22:02:40.495Z,35.70
2019-04-03T22:05:10.475Z,36.93
2019-04-03T22:07:39.522Z,35.20
2019-04-03T22:10:09.226Z,35.28
2019-04-03T22:12:38.459Z,36.28
2019-04-03T22:15:08.045Z,37.45
2019-04-03T22:17:37.103Z,35.73
2019-04-03T22:20:06.591Z,35.65
2019-04-03T22:22:35.654Z,36.60
2019-04-03T22:25:08.556Z,34.20
2019-04-03T22:27:36.175Z,34.83
2019-04-03T22:30:06.512Z,35.52
2019-04-03T22:32:35.568Z,34.80
2019-04-03T22:35:06.243Z,35.92
2019-04-03T22:37:35.872Z,36.58
2019-04-03T22:42:54.876Z,38.15
2019-04-03T22:45:23.995Z,37.05
2019-04-03T22:47:54.269Z,35.92
2019-04-03T22:50:23.810Z,37.75
2019-04-03T22:52:52.949Z,37.95
2019-04-03T22:55:21.980Z,37.58
2019-04-03T22:57:51.154Z,37.83
2019-04-03T23:00:20.248Z,38.85
2019-04-03T23:02:49.297Z,38.33
2019-04-03T23:05:18.348Z,38.42
2019-04-03T23:07:47.402Z,38.33
2019-04-03T23:10:16.454Z,38.40
2019-04-03T23:12:45.508Z,37.73
2019-04-03T23:15:14.573Z,38.55
2019-04-03T23:17:44.833Z,38.17
2019-04-03T23:20:14.545Z,37.67
2019-04-03T23:22:43.649Z,39.58
2019-04-03T23:25:12.767Z,40.95
2019-04-03T23:27:41.851Z,40.10
2019-04-03T23:30:11.053Z,42.55
2019-04-03T23:32:40.188Z,40.43
2019-04-03T23:35:09.321Z,42.80
2019-04-03T23:37:38.383Z,41.53
2019-04-03T23:40:07.681Z,39.70
2019-04-03T23:42:37.923Z,40.03
2019-04-03T23:45:08.407Z,41.50
2019-04-03T23:47:37.469Z,41.53
2019-04-03T23:50:09.441Z,42.20
2019-04-03T23:52:38.504Z,40.75
2019-04-03T23:55:07.630Z,41.70
2019-04-03T23:57:39.603Z,43.05
